sensor_id;sensor_type;location;lat;lon;timestamp;P1;durP1;ratioP1;P2;durP2;ratioP2
76765;SDS011;65707;52.362;6.588;2023-04-16T20:18:22;16.13;;;9.25;;
76765;SDS011;65707;52.362;6.588;2023-04-16T20:20:50;13.68;;;8.95;;
76765;SDS011;65707;52.362;6.588;2023-04-16T20:23:17;15.85;;;9.60;;
76765;SDS011;65707;52.362;6.588;2023-04-16T20:25:43;15.18;;;8.93;;
76765;SDS011;65707;52.362;6.588;2023-04-16T20:28:11;15.40;;;8.23;;
76765;SDS011;65707;52.362;6.588;2023-04-16T20:30:40;15.95;;;9.05;;
76765;SDS011;65707;52.362;6.588;2023-04-16T20:33:06;12.50;;;8.50;;
76765;SDS011;65707;52.362;6.588;2023-04-16T20:35:35;14.27;;;8.77;;
76765;SDS011;65707;52.362;6.588;2023-04-16T20:38:02;16.42;;;9.63;;
76765;SDS011;65707;52.362;6.588;2023-04-16T20:40:28;15.60;;;9.75;;
76765;SDS011;65707;52.362;6.588;2023-04-16T20:42:55;13.80;;;9.02;;
76765;SDS011;65707;52.362;6.588;2023-04-16T20:45:23;16.70;;;9.77;;
76765;SDS011;65707;52.362;6.588;2023-04-16T20:47:56;15.60;;;9.50;;
76765;SDS011;65707;52.362;6.588;2023-04-16T20:50:23;15.60;;;9.43;;
76765;SDS011;65707;52.362;6.588;2023-04-16T20:52:51;17.98;;;9.07;;
76765;SDS011;65707;52.362;6.588;2023-04-16T20:55:18;16.60;;;9.25;;
76765;SDS011;65707;52.362;6.588;2023-04-16T20:57:45;14.88;;;9.18;;
76765;SDS011;65707;52.362;6.588;2023-04-16T21:00:12;16.75;;;9.63;;
76765;SDS011;65707;52.362;6.588;2023-04-16T21:02:40;16.30;;;8.77;;
76765;SDS011;65707;52.362;6.588;2023-04-16T21:05:07;14.07;;;9.02;;
76765;SDS011;65707;52.362;6.588;2023-04-16T21:07:38;15.15;;;9.35;;
76765;SDS011;65707;52.362;6.588;2023-04-16T21:10:08;13.82;;;8.13;;
76765;SDS011;65707;52.362;6.588;2023-04-16T21:12:35;13.43;;;8.98;;
76765;SDS011;65707;52.362;6.588;2023-04-16T21:15:02;15.60;;;9.23;;
76765;SDS011;65707;52.362;6.588;2023-04-16T21:17:29;13.95;;;8.70;;
76765;SDS011;65707;52.362;6.588;2023-04-16T21:19:56;14.85;;;9.18;;
76765;SDS011;65707;52.362;6.588;2023-04-16T21:22:22;15.57;;;9.40;;
76765;SDS011;65707;52.362;6.588;2023-04-16T21:24:49;14.75;;;9.32;;
76765;SDS011;65707;52.362;6.588;2023-04-16T21:27:17;14.65;;;9.27;;
76765;SDS011;65707;52.362;6.588;2023-04-16T21:29:44;14.68;;;8.60;;
76765;SDS011;65707;52.362;6.588;2023-04-16T21:32:10;13.38;;;7.82;;
76765;SDS011;65707;52.362;6.588;2023-04-16T21:34:37;12.98;;;9.00;;
76765;SDS011;65707;52.362;6.588;2023-04-16T21:37:03;14.50;;;9.20;;
76765;SDS011;65707;52.362;6.588;2023-04-16T21:39:30;13.18;;;8.27;;
76765;SDS011;65707;52.362;6.588;2023-04-16T21:41:57;13.23;;;8.68;;
76765;SDS011;65707;52.362;6.588;2023-04-16T21:44:25;12.68;;;8.02;;
76765;SDS011;65707;52.362;6.588;2023-04-16T21:46:51;13.75;;;8.23;;
76765;SDS011;65707;52.362;6.588;2023-04-16T21:49:18;15.15;;;8.90;;
76765;SDS011;65707;52.362;6.588;2023-04-16T21:51:44;14.25;;;9.43;;
76765;SDS011;65707;52.362;6.588;2023-04-16T21:54:11;14.25;;;8.82;;
76765;SDS011;65707;52.362;6.588;2023-04-16T21:56:41;14.23;;;8.73;;
76765;SDS011;65707;52.362;6.588;2023-04-16T21:59:08;13.35;;;8.80;;
76765;SDS011;65707;52.362;6.588;2023-04-16T22:01:36;14.23;;;9.02;;
76765;SDS011;65707;52.362;6.588;2023-04-16T22:04:02;13.57;;;9.20;;
76765;SDS011;65707;52.362;6.588;2023-04-16T22:09:18;13.68;;;7.93;;
76765;SDS011;65707;52.362;6.588;2023-04-16T22:11:44;13.52;;;8.07;;
76765;SDS011;65707;52.362;6.588;2023-04-16T22:14:11;13.13;;;8.10;;
76765;SDS011;65707;52.362;6.588;2023-04-16T22:16:38;13.60;;;8.57;;
76765;SDS011;65707;52.362;6.588;2023-04-16T22:19:05;15.90;;;8.25;;
76765;SDS011;65707;52.362;6.588;2023-04-16T22:21:32;15.25;;;8.52;;
76765;SDS011;65707;52.362;6.588;2023-04-16T22:23:59;13.10;;;8.60;;
76765;SDS011;65707;52.362;6.588;2023-04-16T22:26:26;13.43;;;8.20;;
76765;SDS011;65707;52.362;6.588;2023-04-16T22:28:53;13.23;;;8.23;;
76765;SDS011;65707;52.362;6.588;2023-04-16T22:31:20;15.07;;;8.15;;
76765;SDS011;65707;52.362;6.588;2023-04-16T22:33:47;13.98;;;8.27;;
76765;SDS011;65707;52.362;6.588;2023-04-16T22:36:13;12.07;;;8.20;;
76765;SDS011;65707;52.362;6.588;2023-04-16T22:38:40;13.18;;;8.48;;
76765;SDS011;65707;52.362;6.588;2023-04-16T22:41:06;12.20;;;8.27;;
76765;SDS011;65707;52.362;6.588;2023-04-16T22:43:34;13.85;;;8.25;;
76765;SDS011;65707;52.362;6.588;2023-04-16T22:46:01;13.13;;;7.78;;
76765;SDS011;65707;52.362;6.588;2023-04-16T22:48:28;13.80;;;8.20;;
76765;SDS011;65707;52.362;6.588;2023-04-16T22:50:55;16.55;;;8.65;;
76765;SDS011;65707;52.362;6.588;2023-04-16T22:53:22;13.10;;;8.18;;
76765;SDS011;65707;52.362;6.588;2023-04-16T22:55:49;14.40;;;8.40;;
76765;SDS011;65707;52.362;6.588;2023-04-16T22:58:16;13.95;;;8.63;;
76765;SDS011;65707;52.362;6.588;2023-04-16T23:00:43;13.25;;;8.25;;
76765;SDS011;65707;52.362;6.588;2023-04-16T23:03:11;12.73;;;8.05;;
76765;SDS011;65707;52.362;6.588;2023-04-16T23:05:38;12.88;;;8.07;;
76765;SDS011;65707;52.362;6.588;2023-04-16T23:08:04;12.70;;;7.82;;
76765;SDS011;65707;52.362;6.588;2023-04-16T23:10:31;13.32;;;8.40;;
76765;SDS011;65707;52.362;6.588;2023-04-16T23:12:58;12.70;;;8.55;;
76765;SDS011;65707;52.362;6.588;2023-04-16T23:15:24;13.85;;;8.52;;
76765;SDS011;65707;52.362;6.588;2023-04-16T23:17:52;13.52;;;8.50;;
76765;SDS011;65707;52.362;6.588;2023-04-16T23:20:19;13.63;;;8.05;;
76765;SDS011;65707;52.362;6.588;2023-04-16T23:22:46;14.25;;;8.20;;
76765;SDS011;65707;52.362;6.588;2023-04-16T23:25:12;12.57;;;8.07;;
76765;SDS011;65707;52.362;6.588;2023-04-16T23:27:39;13.30;;;8.30;;
76765;SDS011;65707;52.362;6.588;2023-04-16T23:30:06;12.60;;;8.20;;
76765;SDS011;65707;52.362;6.588;2023-04-16T23:32:34;13.63;;;8.60;;
76765;SDS011;65707;52.362;6.588;2023-04-16T23:35:01;14.40;;;7.78;;
76765;SDS011;65707;52.362;6.588;2023-04-16T23:37:28;12.00;;;7.75;;
76765;SDS011;65707;52.362;6.588;2023-04-16T23:39:55;14.30;;;8.20;;
76765;SDS011;65707;52.362;6.588;2023-04-16T23:42:21;12.95;;;8.00;;
76765;SDS011;65707;52.362;6.588;2023-04-16T23:44:48;13.02;;;8.25;;
76765;SDS011;65707;52.362;6.588;2023-04-16T23:47:14;13.10;;;7.85;;
76765;SDS011;65707;52.362;6.588;2023-04-16T23:49:41;11.75;;;8.15;;
76765;SDS011;65707;52.362;6.588;2023-04-16T23:52:09;13.00;;;8.65;;
76765;SDS011;65707;52.362;6.588;2023-04-16T23:54:36;13.27;;;8.23;;
76765;SDS011;65707;52.362;6.588;2023-04-16T23:57:03;12.48;;;8.13;;
76765;SDS011;65707;52.362;6.588;2023-04-16T23:59:29;12.43;;;7.97;;
